sensor_id;sensor_type;location;lat;lon;timestamp;P1;durP1;ratioP1;P2;durP2;ratioP2
76495;SDS011;65329;52.544;4.662;2023-09-08T00:00:03;10.57;;;8.15;;
76495;SDS011;65329;52.544;4.662;2023-09-08T00:02:31;10.98;;;8.35;;
76495;SDS011;65329;52.544;4.662;2023-09-08T00:04:58;11.13;;;8.70;;
76495;SDS011;65329;52.544;4.662;2023-09-08T00:07:25;11.15;;;8.75;;
76495;SDS011;65329;52.544;4.662;2023-09-08T00:09:53;10.27;;;8.90;;
76495;SDS011;65329;52.544;4.662;2023-09-08T00:12:20;11.15;;;8.77;;
76495;SDS011;65329;52.544;4.662;2023-09-08T00:14:47;11.73;;;9.18;;
76495;SDS011;65329;52.544;4.662;2023-09-08T00:17:15;14.65;;;9.38;;
76495;SDS011;65329;52.544;4.662;2023-09-08T00:19:42;12.30;;;9.75;;
76495;SDS011;65329;52.544;4.662;2023-09-08T00:22:09;10.55;;;8.52;;
76495;SDS011;65329;52.544;4.662;2023-09-08T00:24:36;11.00;;;9.13;;
76495;SDS011;65329;52.544;4.662;2023-09-08T00:27:03;12.25;;;8.52;;
76495;SDS011;65329;52.544;4.662;2023-09-08T00:29:30;11.18;;;9.18;;
76495;SDS011;65329;52.544;4.662;2023-09-08T00:31:57;14.63;;;9.70;;
76495;SDS011;65329;52.544;4.662;2023-09-08T00:34:24;12.82;;;10.02;;
76495;SDS011;65329;52.544;4.662;2023-09-08T00:36:52;13.75;;;9.70;;
76495;SDS011;65329;52.544;4.662;2023-09-08T00:39:19;11.52;;;9.85;;
76495;SDS011;65329;52.544;4.662;2023-09-08T00:41:46;13.55;;;9.75;;
76495;SDS011;65329;52.544;4.662;2023-09-08T00:44:13;12.52;;;10.05;;
76495;SDS011;65329;52.544;4.662;2023-09-08T00:46:40;14.90;;;9.85;;
76495;SDS011;65329;52.544;4.662;2023-09-08T00:49:09;11.63;;;9.30;;
76495;SDS011;65329;52.544;4.662;2023-09-08T00:54:58;11.20;;;8.38;;
76495;SDS011;65329;52.544;4.662;2023-09-08T00:57:26;12.38;;;9.07;;
76495;SDS011;65329;52.544;4.662;2023-09-08T00:59:53;10.93;;;8.77;;
76495;SDS011;65329;52.544;4.662;2023-09-08T01:02:21;10.65;;;8.40;;
76495;SDS011;65329;52.544;4.662;2023-09-08T01:04:49;12.15;;;8.10;;
76495;SDS011;65329;52.544;4.662;2023-09-08T01:07:18;10.38;;;8.38;;
76495;SDS011;65329;52.544;4.662;2023-09-08T01:09:46;11.75;;;8.48;;
76495;SDS011;65329;52.544;4.662;2023-09-08T01:12:14;10.57;;;8.45;;
76495;SDS011;65329;52.544;4.662;2023-09-08T01:14:41;11.55;;;8.50;;
76495;SDS011;65329;52.544;4.662;2023-09-08T01:17:09;10.05;;;8.27;;
76495;SDS011;65329;52.544;4.662;2023-09-08T01:19:36;11.02;;;8.40;;
76495;SDS011;65329;52.544;4.662;2023-09-08T01:25:04;12.98;;;9.13;;
76495;SDS011;65329;52.544;4.662;2023-09-08T01:27:24;11.52;;;8.48;;
76495;SDS011;65329;52.544;4.662;2023-09-08T01:29:55;12.65;;;8.68;;
76495;SDS011;65329;52.544;4.662;2023-09-08T01:32:23;10.80;;;7.88;;
76495;SDS011;65329;52.544;4.662;2023-09-08T01:34:51;13.88;;;8.30;;
76495;SDS011;65329;52.544;4.662;2023-09-08T01:37:18;13.25;;;8.90;;
76495;SDS011;65329;52.544;4.662;2023-09-08T01:39:49;11.68;;;8.70;;
76495;SDS011;65329;52.544;4.662;2023-09-08T01:42:16;12.50;;;9.07;;
76495;SDS011;65329;52.544;4.662;2023-09-08T01:44:44;13.13;;;9.63;;
76495;SDS011;65329;52.544;4.662;2023-09-08T01:47:11;11.25;;;8.95;;
76495;SDS011;65329;52.544;4.662;2023-09-08T01:49:37;11.48;;;8.75;;
76495;SDS011;65329;52.544;4.662;2023-09-08T01:52:04;11.43;;;8.57;;
76495;SDS011;65329;52.544;4.662;2023-09-08T01:54:34;14.45;;;9.30;;
76495;SDS011;65329;52.544;4.662;2023-09-08T01:57:01;13.43;;;9.07;;
76495;SDS011;65329;52.544;4.662;2023-09-08T01:59:28;11.63;;;8.82;;
76495;SDS011;65329;52.544;4.662;2023-09-08T02:01:54;12.90;;;8.88;;
76495;SDS011;65329;52.544;4.662;2023-09-08T02:04:22;11.98;;;9.07;;
76495;SDS011;65329;52.544;4.662;2023-09-08T02:06:49;11.45;;;8.15;;
76495;SDS011;65329;52.544;4.662;2023-09-08T02:09:18;10.80;;;8.80;;
76495;SDS011;65329;52.544;4.662;2023-09-08T02:11:45;10.73;;;9.15;;
76495;SDS011;65329;52.544;4.662;2023-09-08T02:14:12;12.50;;;9.13;;
76495;SDS011;65329;52.544;4.662;2023-09-08T02:16:40;11.77;;;9.73;;
76495;SDS011;65329;52.544;4.662;2023-09-08T02:19:07;14.40;;;10.43;;
76495;SDS011;65329;52.544;4.662;2023-09-08T02:21:34;12.63;;;9.98;;
76495;SDS011;65329;52.544;4.662;2023-09-08T02:24:01;12.55;;;8.80;;
76495;SDS011;65329;52.544;4.662;2023-09-08T02:26:27;11.25;;;8.95;;
76495;SDS011;65329;52.544;4.662;2023-09-08T02:28:56;10.70;;;9.45;;
76495;SDS011;65329;52.544;4.662;2023-09-08T02:31:24;13.55;;;9.82;;
76495;SDS011;65329;52.544;4.662;2023-09-08T02:33:51;12.23;;;9.43;;
76495;SDS011;65329;52.544;4.662;2023-09-08T02:36:18;10.95;;;9.48;;
76495;SDS011;65329;52.544;4.662;2023-09-08T02:38:54;12.27;;;9.05;;
76495;SDS011;65329;52.544;4.662;2023-09-08T02:41:22;13.13;;;9.43;;
76495;SDS011;65329;52.544;4.662;2023-09-08T02:43:49;12.10;;;9.85;;
76495;SDS011;65329;52.544;4.662;2023-09-08T02:46:17;11.68;;;8.95;;
76495;SDS011;65329;52.544;4.662;2023-09-08T02:48:44;12.93;;;8.95;;
76495;SDS011;65329;52.544;4.662;2023-09-08T02:51:11;12.65;;;10.07;;
76495;SDS011;65329;52.544;4.662;2023-09-08T02:53:38;12.45;;;8.82;;
76495;SDS011;65329;52.544;4.662;2023-09-08T02:56:05;12.00;;;9.30;;
76495;SDS011;65329;52.544;4.662;2023-09-08T02:58:32;15.40;;;9.68;;
76495;SDS011;65329;52.544;4.662;2023-09-08T03:01:13;16.02;;;10.75;;
76495;SDS011;65329;52.544;4.662;2023-09-08T03:03:42;13.25;;;10.82;;
76495;SDS011;65329;52.544;4.662;2023-09-08T03:06:10;13.45;;;10.98;;
76495;SDS011;65329;52.544;4.662;2023-09-08T03:08:39;13.55;;;10.88;;
76495;SDS011;65329;52.544;4.662;2023-09-08T03:11:07;13.88;;;10.15;;
76495;SDS011;65329;52.544;4.662;2023-09-08T03:13:35;13.55;;;9.68;;
76495;SDS011;65329;52.544;4.662;2023-09-08T03:16:06;12.65;;;10.35;;
76495;SDS011;65329;52.544;4.662;2023-09-08T03:18:34;12.98;;;9.68;;
76495;SDS011;65329;52.544;4.662;2023-09-08T03:21:04;13.98;;;9.93;;
76495;SDS011;65329;52.544;4.662;2023-09-08T03:23:41;14.75;;;10.38;;
76495;SDS011;65329;52.544;4.662;2023-09-08T03:26:10;13.43;;;10.43;;
76495;SDS011;65329;52.544;4.662;2023-09-08T03:28:37;12.63;;;10.18;;
76495;SDS011;65329;52.544;4.662;2023-09-08T03:31:05;15.02;;;10.45;;
76495;SDS011;65329;52.544;4.662;2023-09-08T03:33:34;15.63;;;11.43;;
76495;SDS011;65329;52.544;4.662;2023-09-08T03:36:03;14.63;;;11.43;;
76495;SDS011;65329;52.544;4.662;2023-09-08T03:38:31;14.57;;;10.98;;
76495;SDS011;65329;52.544;4.662;2023-09-08T03:40:58;14.13;;;10.82;;
76495;SDS011;65329;52.544;4.662;2023-09-08T03:43:25;14.57;;;9.93;;
76495;SDS011;65329;52.544;4.662;2023-09-08T03:45:52;16.33;;;10.55;;
76495;SDS011;65329;52.544;4.662;2023-09-08T03:48:21;15.10;;;10.60;;
76495;SDS011;65329;52.544;4.662;2023-09-08T03:50:48;14.77;;;10.82;;
76495;SDS011;65329;52.544;4.662;2023-09-08T03:53:15;15.43;;;11.07;;
76495;SDS011;65329;52.544;4.662;2023-09-08T03:55:42;16.40;;;11.80;;
76495;SDS011;65329;52.544;4.662;2023-09-08T03:58:09;14.10;;;10.93;;
76495;SDS011;65329;52.544;4.662;2023-09-08T04:00:36;14.32;;;11.27;;
76495;SDS011;65329;52.544;4.662;2023-09-08T04:03:04;15.70;;;10.80;;
76495;SDS011;65329;52.544;4.662;2023-09-08T04:05:31;13.90;;;10.63;;
76495;SDS011;65329;52.544;4.662;2023-09-08T04:07:58;14.48;;;11.65;;
76495;SDS011;65329;52.544;4.662;2023-09-08T04:10:26;15.02;;;11.38;;
76495;SDS011;65329;52.544;4.662;2023-09-08T04:12:53;16.55;;;11.63;;
76495;SDS011;65329;52.544;4.662;2023-09-08T04:15:21;14.05;;;10.55;;
76495;SDS011;65329;52.544;4.662;2023-09-08T04:17:49;16.58;;;11.13;;
76495;SDS011;65329;52.544;4.662;2023-09-08T04:20:17;18.08;;;11.60;;
76495;SDS011;65329;52.544;4.662;2023-09-08T04:22:44;14.98;;;11.07;;
76495;SDS011;65329;52.544;4.662;2023-09-08T04:25:11;17.02;;;11.32;;
76495;SDS011;65329;52.544;4.662;2023-09-08T04:27:38;15.73;;;11.05;;
76495;SDS011;65329;52.544;4.662;2023-09-08T04:30:06;16.27;;;10.77;;
76495;SDS011;65329;52.544;4.662;2023-09-08T04:32:34;13.30;;;10.65;;
76495;SDS011;65329;52.544;4.662;2023-09-08T04:35:01;17.40;;;12.00;;
76495;SDS011;65329;52.544;4.662;2023-09-08T04:37:28;14.52;;;11.18;;
76495;SDS011;65329;52.544;4.662;2023-09-08T04:39:57;16.13;;;10.93;;
76495;SDS011;65329;52.544;4.662;2023-09-08T04:42:24;18.45;;;12.25;;
76495;SDS011;65329;52.544;4.662;2023-09-08T04:44:51;17.63;;;12.25;;
76495;SDS011;65329;52.544;4.662;2023-09-08T04:47:18;15.55;;;11.13;;
76495;SDS011;65329;52.544;4.662;2023-09-08T04:49:45;16.15;;;12.02;;
76495;SDS011;65329;52.544;4.662;2023-09-08T04:52:13;14.27;;;10.45;;
76495;SDS011;65329;52.544;4.662;2023-09-08T04:54:42;15.05;;;10.73;;
76495;SDS011;65329;52.544;4.662;2023-09-08T04:57:09;16.58;;;11.55;;
76495;SDS011;65329;52.544;4.662;2023-09-08T04:59:50;15.27;;;11.82;;
76495;SDS011;65329;52.544;4.662;2023-09-08T05:02:18;15.20;;;11.45;;
76495;SDS011;65329;52.544;4.662;2023-09-08T05:04:46;14.98;;;11.38;;
76495;SDS011;65329;52.544;4.662;2023-09-08T05:07:13;17.67;;;11.35;;
76495;SDS011;65329;52.544;4.662;2023-09-08T05:09:40;16.70;;;11.45;;
76495;SDS011;65329;52.544;4.662;2023-09-08T05:12:08;17.08;;;12.57;;
76495;SDS011;65329;52.544;4.662;2023-09-08T05:14:36;17.42;;;11.25;;
76495;SDS011;65329;52.544;4.662;2023-09-08T05:17:03;17.58;;;11.40;;
76495;SDS011;65329;52.544;4.662;2023-09-08T05:19:31;15.35;;;11.68;;
76495;SDS011;65329;52.544;4.662;2023-09-08T05:21:59;18.30;;;12.45;;
76495;SDS011;65329;52.544;4.662;2023-09-08T05:24:27;16.52;;;11.48;;
76495;SDS011;65329;52.544;4.662;2023-09-08T05:26:56;16.88;;;11.13;;
76495;SDS011;65329;52.544;4.662;2023-09-08T05:29:23;14.25;;;10.98;;
76495;SDS011;65329;52.544;4.662;2023-09-08T05:31:50;17.23;;;11.68;;
76495;SDS011;65329;52.544;4.662;2023-09-08T05:34:18;17.45;;;12.20;;
76495;SDS011;65329;52.544;4.662;2023-09-08T05:36:45;14.40;;;11.02;;
76495;SDS011;65329;52.544;4.662;2023-09-08T05:39:14;16.35;;;12.13;;
76495;SDS011;65329;52.544;4.662;2023-09-08T05:41:41;16.15;;;10.70;;
76495;SDS011;65329;52.544;4.662;2023-09-08T05:44:08;15.05;;;11.05;;
76495;SDS011;65329;52.544;4.662;2023-09-08T05:46:35;14.25;;;10.57;;
76495;SDS011;65329;52.544;4.662;2023-09-08T05:49:03;15.55;;;11.32;;
76495;SDS011;65329;52.544;4.662;2023-09-08T05:51:32;18.02;;;12.10;;
76495;SDS011;65329;52.544;4.662;2023-09-08T05:54:01;13.23;;;10.73;;
76495;SDS011;65329;52.544;4.662;2023-09-08T05:56:33;15.95;;;11.05;;
76495;SDS011;65329;52.544;4.662;2023-09-08T05:59:00;13.70;;;10.25;;
76495;SDS011;65329;52.544;4.662;2023-09-08T06:01:29;13.25;;;10.70;;
76495;SDS011;65329;52.544;4.662;2023-09-08T06:03:58;12.35;;;10.35;;
76495;SDS011;65329;52.544;4.662;2023-09-08T06:06:28;14.50;;;10.70;;
76495;SDS011;65329;52.544;4.662;2023-09-08T06:08:56;14.10;;;10.48;;
76495;SDS011;65329;52.544;4.662;2023-09-08T06:11:25;15.45;;;11.40;;
76495;SDS011;65329;52.544;4.662;2023-09-08T06:13:52;13.70;;;11.23;;
76495;SDS011;65329;52.544;4.662;2023-09-08T06:16:22;14.85;;;11.50;;
76495;SDS011;65329;52.544;4.662;2023-09-08T06:18:49;13.98;;;10.30;;
76495;SDS011;65329;52.544;4.662;2023-09-08T06:21:18;14.50;;;10.63;;
76495;SDS011;65329;52.544;4.662;2023-09-08T06:23:46;12.82;;;10.43;;
76495;SDS011;65329;52.544;4.662;2023-09-08T06:26:14;12.45;;;10.07;;
76495;SDS011;65329;52.544;4.662;2023-09-08T06:28:41;12.05;;;10.20;;
76495;SDS011;65329;52.544;4.662;2023-09-08T06:31:10;11.32;;;9.35;;
76495;SDS011;65329;52.544;4.662;2023-09-08T06:33:39;12.48;;;9.70;;
76495;SDS011;65329;52.544;4.662;2023-09-08T06:36:06;12.30;;;9.63;;
76495;SDS011;65329;52.544;4.662;2023-09-08T06:38:33;14.40;;;10.32;;
76495;SDS011;65329;52.544;4.662;2023-09-08T06:41:08;12.38;;;9.73;;
76495;SDS011;65329;52.544;4.662;2023-09-08T06:43:37;11.90;;;10.20;;
76495;SDS011;65329;52.544;4.662;2023-09-08T06:46:11;13.25;;;10.85;;
76495;SDS011;65329;52.544;4.662;2023-09-08T06:48:39;13.70;;;10.75;;
76495;SDS011;65329;52.544;4.662;2023-09-08T06:51:07;12.55;;;10.88;;
76495;SDS011;65329;52.544;4.662;2023-09-08T06:53:36;14.05;;;10.77;;
76495;SDS011;65329;52.544;4.662;2023-09-08T06:56:04;14.50;;;11.80;;
76495;SDS011;65329;52.544;4.662;2023-09-08T06:58:32;14.85;;;11.15;;
76495;SDS011;65329;52.544;4.662;2023-09-08T07:00:59;14.27;;;12.15;;
76495;SDS011;65329;52.544;4.662;2023-09-08T07:03:27;18.17;;;13.18;;
76495;SDS011;65329;52.544;4.662;2023-09-08T07:05:55;17.15;;;14.30;;
76495;SDS011;65329;52.544;4.662;2023-09-08T07:08:23;18.77;;;13.85;;
76495;SDS011;65329;52.544;4.662;2023-09-08T07:10:53;18.63;;;13.95;;
76495;SDS011;65329;52.544;4.662;2023-09-08T07:13:21;16.90;;;13.50;;
76495;SDS011;65329;52.544;4.662;2023-09-08T07:15:49;18.00;;;14.90;;
76495;SDS011;65329;52.544;4.662;2023-09-08T07:18:17;19.92;;;13.55;;
76495;SDS011;65329;52.544;4.662;2023-09-08T07:20:47;18.35;;;14.02;;
76495;SDS011;65329;52.544;4.662;2023-09-08T07:23:19;19.20;;;14.07;;
76495;SDS011;65329;52.544;4.662;2023-09-08T07:25:47;19.75;;;15.13;;
76495;SDS011;65329;52.544;4.662;2023-09-08T07:28:17;19.48;;;14.07;;
76495;SDS011;65329;52.544;4.662;2023-09-08T07:30:48;18.15;;;14.27;;
76495;SDS011;65329;52.544;4.662;2023-09-08T07:33:16;18.23;;;13.80;;
76495;SDS011;65329;52.544;4.662;2023-09-08T07:35:43;17.30;;;13.85;;
76495;SDS011;65329;52.544;4.662;2023-09-08T07:38:10;15.75;;;13.70;;
76495;SDS011;65329;52.544;4.662;2023-09-08T07:40:37;21.15;;;14.88;;
76495;SDS011;65329;52.544;4.662;2023-09-08T07:43:05;19.20;;;15.95;;
76495;SDS011;65329;52.544;4.662;2023-09-08T07:45:33;19.42;;;15.13;;
76495;SDS011;65329;52.544;4.662;2023-09-08T07:48:00;18.88;;;15.25;;
76495;SDS011;65329;52.544;4.662;2023-09-08T07:50:28;18.58;;;14.35;;
76495;SDS011;65329;52.544;4.662;2023-09-08T07:52:55;21.98;;;15.13;;
76495;SDS011;65329;52.544;4.662;2023-09-08T07:55:24;16.83;;;14.15;;
76495;SDS011;65329;52.544;4.662;2023-09-08T07:57:54;18.60;;;15.20;;
76495;SDS011;65329;52.544;4.662;2023-09-08T08:00:22;17.58;;;14.98;;
76495;SDS011;65329;52.544;4.662;2023-09-08T08:02:50;19.55;;;15.55;;
76495;SDS011;65329;52.544;4.662;2023-09-08T08:05:20;18.48;;;16.50;;
76495;SDS011;65329;52.544;4.662;2023-09-08T08:07:47;19.95;;;16.00;;
76495;SDS011;65329;52.544;4.662;2023-09-08T08:10:17;20.45;;;16.38;;
76495;SDS011;65329;52.544;4.662;2023-09-08T08:12:44;19.17;;;17.17;;
76495;SDS011;65329;52.544;4.662;2023-09-08T08:15:11;17.52;;;15.60;;
76495;SDS011;65329;52.544;4.662;2023-09-08T08:17:39;17.65;;;15.85;;
76495;SDS011;65329;52.544;4.662;2023-09-08T08:20:07;24.65;;;16.20;;
76495;SDS011;65329;52.544;4.662;2023-09-08T08:22:36;19.60;;;17.52;;
76495;SDS011;65329;52.544;4.662;2023-09-08T08:25:04;17.88;;;15.88;;
76495;SDS011;65329;52.544;4.662;2023-09-08T08:27:31;18.40;;;16.48;;
76495;SDS011;65329;52.544;4.662;2023-09-08T08:29:59;19.80;;;17.17;;
76495;SDS011;65329;52.544;4.662;2023-09-08T08:32:28;17.63;;;15.82;;
76495;SDS011;65329;52.544;4.662;2023-09-08T08:34:55;17.60;;;15.63;;
76495;SDS011;65329;52.544;4.662;2023-09-08T08:37:23;18.92;;;16.55;;
76495;SDS011;65329;52.544;4.662;2023-09-08T08:39:50;19.85;;;17.08;;
76495;SDS011;65329;52.544;4.662;2023-09-08T08:42:18;19.50;;;16.83;;
76495;SDS011;65329;52.544;4.662;2023-09-08T08:44:49;19.25;;;16.58;;
76495;SDS011;65329;52.544;4.662;2023-09-08T08:47:17;19.75;;;16.27;;
76495;SDS011;65329;52.544;4.662;2023-09-08T08:49:46;19.88;;;16.42;;
76495;SDS011;65329;52.544;4.662;2023-09-08T08:52:15;18.95;;;17.00;;
76495;SDS011;65329;52.544;4.662;2023-09-08T08:54:44;19.17;;;16.85;;
76495;SDS011;65329;52.544;4.662;2023-09-08T08:57:14;16.45;;;14.63;;
76495;SDS011;65329;52.544;4.662;2023-09-08T08:59:42;20.27;;;17.00;;
76495;SDS011;65329;52.544;4.662;2023-09-08T09:02:11;19.00;;;17.10;;
76495;SDS011;65329;52.544;4.662;2023-09-08T09:04:38;19.55;;;17.50;;
76495;SDS011;65329;52.544;4.662;2023-09-08T09:07:07;17.38;;;15.23;;
76495;SDS011;65329;52.544;4.662;2023-09-08T09:09:35;19.38;;;17.38;;
76495;SDS011;65329;52.544;4.662;2023-09-08T09:12:02;20.25;;;18.13;;
76495;SDS011;65329;52.544;4.662;2023-09-08T09:14:33;16.25;;;14.55;;
76495;SDS011;65329;52.544;4.662;2023-09-08T09:17:01;20.10;;;17.13;;
76495;SDS011;65329;52.544;4.662;2023-09-08T09:19:31;20.75;;;17.45;;
76495;SDS011;65329;52.544;4.662;2023-09-08T09:22:00;17.48;;;14.88;;
76495;SDS011;65329;52.544;4.662;2023-09-08T09:24:34;18.05;;;16.02;;
76495;SDS011;65329;52.544;4.662;2023-09-08T09:27:08;19.60;;;17.50;;
76495;SDS011;65329;52.544;4.662;2023-09-08T09:29:46;19.70;;;17.42;;
76495;SDS011;65329;52.544;4.662;2023-09-08T09:32:15;21.35;;;17.65;;
76495;SDS011;65329;52.544;4.662;2023-09-08T09:34:50;18.02;;;16.13;;
76495;SDS011;65329;52.544;4.662;2023-09-08T09:37:23;19.00;;;17.20;;
76495;SDS011;65329;52.544;4.662;2023-09-08T09:39:51;21.38;;;17.92;;
76495;SDS011;65329;52.544;4.662;2023-09-08T09:42:21;18.95;;;16.67;;
76495;SDS011;65329;52.544;4.662;2023-09-08T09:44:48;20.60;;;18.30;;
76495;SDS011;65329;52.544;4.662;2023-09-08T09:47:16;20.23;;;18.05;;
76495;SDS011;65329;52.544;4.662;2023-09-08T09:49:45;20.85;;;17.98;;
76495;SDS011;65329;52.544;4.662;2023-09-08T09:52:20;18.00;;;16.13;;
76495;SDS011;65329;52.544;4.662;2023-09-08T09:54:49;20.02;;;16.58;;
76495;SDS011;65329;52.544;4.662;2023-09-08T09:57:19;22.23;;;19.55;;
76495;SDS011;65329;52.544;4.662;2023-09-08T10:02:18;21.33;;;17.75;;
76495;SDS011;65329;52.544;4.662;2023-09-08T10:04:47;20.10;;;17.13;;
76495;SDS011;65329;52.544;4.662;2023-09-08T10:07:16;21.23;;;18.92;;
76495;SDS011;65329;52.544;4.662;2023-09-08T10:09:44;20.75;;;17.52;;
76495;SDS011;65329;52.544;4.662;2023-09-08T10:12:12;20.98;;;16.83;;
76495;SDS011;65329;52.544;4.662;2023-09-08T10:14:45;20.88;;;16.67;;
76495;SDS011;65329;52.544;4.662;2023-09-08T10:17:18;19.27;;;16.30;;
76495;SDS011;65329;52.544;4.662;2023-09-08T10:19:51;17.95;;;15.88;;
76495;SDS011;65329;52.544;4.662;2023-09-08T10:22:23;20.40;;;16.35;;
76495;SDS011;65329;52.544;4.662;2023-09-08T10:24:56;22.20;;;16.65;;
76495;SDS011;65329;52.544;4.662;2023-09-08T10:27:25;19.20;;;15.23;;
76495;SDS011;65329;52.544;4.662;2023-09-08T10:29:52;26.83;;;16.80;;
76495;SDS011;65329;52.544;4.662;2023-09-08T10:32:20;19.35;;;17.25;;
76495;SDS011;65329;52.544;4.662;2023-09-08T10:34:49;19.23;;;16.08;;
76495;SDS011;65329;52.544;4.662;2023-09-08T10:37:21;17.35;;;15.32;;
76495;SDS011;65329;52.544;4.662;2023-09-08T10:39:49;18.17;;;15.52;;
76495;SDS011;65329;52.544;4.662;2023-09-08T10:42:20;21.35;;;18.08;;
76495;SDS011;65329;52.544;4.662;2023-09-08T10:48:03;22.58;;;18.98;;
76495;SDS011;65329;52.544;4.662;2023-09-08T10:50:26;22.20;;;17.20;;
76495;SDS011;65329;52.544;4.662;2023-09-08T10:53:10;25.67;;;18.08;;
76495;SDS011;65329;52.544;4.662;2023-09-08T10:55:47;28.13;;;19.17;;
76495;SDS011;65329;52.544;4.662;2023-09-08T10:58:37;27.58;;;21.02;;
76495;SDS011;65329;52.544;4.662;2023-09-08T11:01:15;23.58;;;19.35;;
76495;SDS011;65329;52.544;4.662;2023-09-08T11:03:45;27.50;;;20.95;;
76495;SDS011;65329;52.544;4.662;2023-09-08T11:06:17;26.58;;;20.35;;
76495;SDS011;65329;52.544;4.662;2023-09-08T11:08:46;30.02;;;20.88;;
76495;SDS011;65329;52.544;4.662;2023-09-08T11:11:16;25.95;;;20.38;;
76495;SDS011;65329;52.544;4.662;2023-09-08T11:13:44;26.23;;;17.88;;
76495;SDS011;65329;52.544;4.662;2023-09-08T11:16:14;22.63;;;18.92;;
76495;SDS011;65329;52.544;4.662;2023-09-08T11:18:42;24.50;;;19.92;;
76495;SDS011;65329;52.544;4.662;2023-09-08T11:21:10;21.40;;;17.63;;
76495;SDS011;65329;52.544;4.662;2023-09-08T11:23:38;23.80;;;18.73;;
76495;SDS011;65329;52.544;4.662;2023-09-08T11:26:06;23.50;;;19.30;;
76495;SDS011;65329;52.544;4.662;2023-09-08T11:28:35;23.05;;;18.15;;
76495;SDS011;65329;52.544;4.662;2023-09-08T11:31:05;24.00;;;18.42;;
76495;SDS011;65329;52.544;4.662;2023-09-08T11:33:33;21.10;;;18.35;;
76495;SDS011;65329;52.544;4.662;2023-09-08T11:36:13;24.08;;;18.50;;
76495;SDS011;65329;52.544;4.662;2023-09-08T11:38:43;23.75;;;17.27;;
76495;SDS011;65329;52.544;4.662;2023-09-08T11:41:13;25.35;;;19.02;;
76495;SDS011;65329;52.544;4.662;2023-09-08T11:43:41;22.05;;;18.77;;
76495;SDS011;65329;52.544;4.662;2023-09-08T11:46:08;21.52;;;17.77;;
76495;SDS011;65329;52.544;4.662;2023-09-08T11:48:37;23.27;;;18.38;;
76495;SDS011;65329;52.544;4.662;2023-09-08T11:51:08;21.92;;;18.15;;
76495;SDS011;65329;52.544;4.662;2023-09-08T11:53:35;20.42;;;17.35;;
76495;SDS011;65329;52.544;4.662;2023-09-08T11:56:04;21.08;;;17.77;;
76495;SDS011;65329;52.544;4.662;2023-09-08T11:58:32;24.67;;;18.80;;
76495;SDS011;65329;52.544;4.662;2023-09-08T12:01:00;25.23;;;18.85;;
76495;SDS011;65329;52.544;4.662;2023-09-08T12:03:30;23.33;;;18.85;;
76495;SDS011;65329;52.544;4.662;2023-09-08T12:05:59;22.33;;;17.77;;
76495;SDS011;65329;52.544;4.662;2023-09-08T12:08:29;22.55;;;18.05;;
76495;SDS011;65329;52.544;4.662;2023-09-08T12:10:57;20.10;;;17.80;;
76495;SDS011;65329;52.544;4.662;2023-09-08T12:13:24;21.02;;;15.57;;
76495;SDS011;65329;52.544;4.662;2023-09-08T12:15:51;16.55;;;13.73;;
76495;SDS011;65329;52.544;4.662;2023-09-08T12:18:19;16.95;;;13.50;;
76495;SDS011;65329;52.544;4.662;2023-09-08T12:21:04;16.10;;;12.25;;
76495;SDS011;65329;52.544;4.662;2023-09-08T12:23:31;16.95;;;13.68;;
76495;SDS011;65329;52.544;4.662;2023-09-08T12:25:58;19.67;;;12.38;;
76495;SDS011;65329;52.544;4.662;2023-09-08T12:28:29;15.65;;;12.48;;
76495;SDS011;65329;52.544;4.662;2023-09-08T12:33:25;16.67;;;12.73;;
76495;SDS011;65329;52.544;4.662;2023-09-08T12:35:53;13.23;;;11.45;;
76495;SDS011;65329;52.544;4.662;2023-09-08T12:38:20;15.90;;;13.20;;
76495;SDS011;65329;52.544;4.662;2023-09-08T12:40:47;16.33;;;11.82;;
76495;SDS011;65329;52.544;4.662;2023-09-08T12:43:14;13.15;;;11.65;;
76495;SDS011;65329;52.544;4.662;2023-09-08T12:45:56;18.33;;;11.75;;
76495;SDS011;65329;52.544;4.662;2023-09-08T12:48:23;14.02;;;12.63;;
76495;SDS011;65329;52.544;4.662;2023-09-08T12:50:50;14.70;;;13.13;;
76495;SDS011;65329;52.544;4.662;2023-09-08T12:53:17;14.43;;;12.95;;
76495;SDS011;65329;52.544;4.662;2023-09-08T12:55:45;16.55;;;12.25;;
76495;SDS011;65329;52.544;4.662;2023-09-08T12:58:14;13.98;;;11.43;;
76495;SDS011;65329;52.544;4.662;2023-09-08T13:00:42;15.82;;;11.90;;
76495;SDS011;65329;52.544;4.662;2023-09-08T13:03:10;12.18;;;10.95;;
76495;SDS011;65329;52.544;4.662;2023-09-08T13:05:37;13.80;;;11.18;;
76495;SDS011;65329;52.544;4.662;2023-09-08T13:08:06;11.57;;;10.32;;
76495;SDS011;65329;52.544;4.662;2023-09-08T13:10:35;12.23;;;9.77;;
76495;SDS011;65329;52.544;4.662;2023-09-08T13:13:02;10.63;;;9.50;;
76495;SDS011;65329;52.544;4.662;2023-09-08T13:15:29;11.35;;;10.13;;
76495;SDS011;65329;52.544;4.662;2023-09-08T13:17:57;9.65;;;8.65;;
76495;SDS011;65329;52.544;4.662;2023-09-08T13:20:24;11.15;;;9.00;;
76495;SDS011;65329;52.544;4.662;2023-09-08T13:22:51;8.63;;;7.63;;
76495;SDS011;65329;52.544;4.662;2023-09-08T13:25:18;11.82;;;8.02;;
76495;SDS011;65329;52.544;4.662;2023-09-08T13:27:45;9.25;;;8.20;;
76495;SDS011;65329;52.544;4.662;2023-09-08T13:30:15;10.70;;;8.27;;
76495;SDS011;65329;52.544;4.662;2023-09-08T13:32:43;8.77;;;7.95;;
76495;SDS011;65329;52.544;4.662;2023-09-08T13:35:12;11.45;;;7.53;;
76495;SDS011;65329;52.544;4.662;2023-09-08T13:37:39;8.57;;;7.50;;
76495;SDS011;65329;52.544;4.662;2023-09-08T13:40:07;9.00;;;8.10;;
76495;SDS011;65329;52.544;4.662;2023-09-08T13:42:35;7.90;;;7.07;;
76495;SDS011;65329;52.544;4.662;2023-09-08T13:45:03;12.07;;;7.25;;
76495;SDS011;65329;52.544;4.662;2023-09-08T13:47:31;10.65;;;7.25;;
76495;SDS011;65329;52.544;4.662;2023-09-08T13:50:00;7.85;;;7.05;;
76495;SDS011;65329;52.544;4.662;2023-09-08T13:52:28;7.75;;;6.40;;
76495;SDS011;65329;52.544;4.662;2023-09-08T13:54:58;10.48;;;7.38;;
76495;SDS011;65329;52.544;4.662;2023-09-08T13:57:45;8.65;;;6.60;;
76495;SDS011;65329;52.544;4.662;2023-09-08T14:00:15;7.88;;;6.60;;
76495;SDS011;65329;52.544;4.662;2023-09-08T14:02:50;7.40;;;6.50;;
76495;SDS011;65329;52.544;4.662;2023-09-08T14:05:24;8.07;;;7.13;;
76495;SDS011;65329;52.544;4.662;2023-09-08T14:08:00;8.77;;;7.30;;
76495;SDS011;65329;52.544;4.662;2023-09-08T14:10:34;7.95;;;7.13;;
76495;SDS011;65329;52.544;4.662;2023-09-08T14:13:04;7.97;;;7.18;;
76495;SDS011;65329;52.544;4.662;2023-09-08T14:15:31;8.02;;;7.22;;
76495;SDS011;65329;52.544;4.662;2023-09-08T14:17:58;8.30;;;7.30;;
76495;SDS011;65329;52.544;4.662;2023-09-08T14:20:25;8.07;;;7.28;;
76495;SDS011;65329;52.544;4.662;2023-09-08T14:22:52;8.60;;;6.78;;
76495;SDS011;65329;52.544;4.662;2023-09-08T14:25:19;9.07;;;7.68;;
76495;SDS011;65329;52.544;4.662;2023-09-08T14:27:47;7.95;;;6.88;;
76495;SDS011;65329;52.544;4.662;2023-09-08T14:30:14;8.73;;;7.50;;
76495;SDS011;65329;52.544;4.662;2023-09-08T14:32:41;8.65;;;6.43;;
76495;SDS011;65329;52.544;4.662;2023-09-08T14:35:08;8.63;;;7.25;;
76495;SDS011;65329;52.544;4.662;2023-09-08T14:37:36;8.00;;;7.25;;
76495;SDS011;65329;52.544;4.662;2023-09-08T14:40:03;9.75;;;7.78;;
76495;SDS011;65329;52.544;4.662;2023-09-08T14:42:31;7.88;;;6.78;;
76495;SDS011;65329;52.544;4.662;2023-09-08T14:44:58;8.75;;;7.85;;
76495;SDS011;65329;52.544;4.662;2023-09-08T14:47:25;8.32;;;6.78;;